sensor_id;sensor_type;location;lat;lon;timestamp;pressure;altitude;pressure_sealevel;temperature;humidity
77855;BME280;67046;50.088;14.336;2023-02-11T00:00:05;99216.91;;;0.72;68.70
77855;BME280;67046;50.088;14.336;2023-02-11T00:00:41;99216.54;;;0.73;68.75
77855;BME280;67046;50.088;14.336;2023-02-11T00:01:31;99220.83;;;0.73;68.72
77855;BME280;67046;50.088;14.336;2023-02-11T00:02:03;99217.14;;;0.73;68.45
77855;BME280;67046;50.088;14.336;2023-02-11T00:02:35;99218.80;;;0.74;68.52
77855;BME280;67046;50.088;14.336;2023-02-11T00:03:08;99215.27;;;0.75;68.60
77855;BME280;67046;50.088;14.336;2023-02-11T00:03:40;99212.55;;;0.76;68.69
77855;BME280;67046;50.088;14.336;2023-02-11T00:04:12;99208.72;;;0.76;68.57
77855;BME280;67046;50.088;14.336;2023-02-11T00:04:44;99209.03;;;0.77;68.74
77855;BME280;67046;50.088;14.336;2023-02-11T00:05:16;99202.15;;;0.78;68.76
77855;BME280;67046;50.088;14.336;2023-02-11T00:05:59;99209.58;;;0.79;68.71
77855;BME280;67046;50.088;14.336;2023-02-11T00:06:32;99205.17;;;0.77;68.97
77855;BME280;67046;50.088;14.336;2023-02-11T00:07:05;99201.38;;;0.77;68.68
77855;BME280;67046;50.088;14.336;2023-02-11T00:07:37;99206.23;;;0.77;68.71
77855;BME280;67046;50.088;14.336;2023-02-11T00:08:09;99207.27;;;0.77;68.51
77855;BME280;67046;50.088;14.336;2023-02-11T00:08:41;99204.45;;;0.78;68.57
77855;BME280;67046;50.088;14.336;2023-02-11T00:09:13;99209.36;;;0.77;68.41
77855;BME280;67046;50.088;14.336;2023-02-11T00:09:45;99209.02;;;0.77;68.54
77855;BME280;67046;50.088;14.336;2023-02-11T00:10:17;99205.02;;;0.77;68.73
77855;BME280;67046;50.088;14.336;2023-02-11T00:10:54;99198.92;;;0.78;68.55
77855;BME280;67046;50.088;14.336;2023-02-11T00:11:27;99213.55;;;0.77;68.55
77855;BME280;67046;50.088;14.336;2023-02-11T00:12:03;99204.81;;;0.76;69.10
77855;BME280;67046;50.088;14.336;2023-02-11T00:12:36;99207.85;;;0.75;68.79
77855;BME280;67046;50.088;14.336;2023-02-11T00:13:09;99205.54;;;0.75;68.96
77855;BME280;67046;50.088;14.336;2023-02-11T00:13:41;99197.80;;;0.74;69.08
77855;BME280;67046;50.088;14.336;2023-02-11T00:14:14;99199.84;;;0.75;69.12
77855;BME280;67046;50.088;14.336;2023-02-11T00:14:46;99195.41;;;0.76;68.96
77855;BME280;67046;50.088;14.336;2023-02-11T00:15:18;99197.63;;;0.76;68.49
77855;BME280;67046;50.088;14.336;2023-02-11T00:15:53;99194.08;;;0.78;69.08
77855;BME280;67046;50.088;14.336;2023-02-11T00:16:25;99190.01;;;0.78;68.90
77855;BME280;67046;50.088;14.336;2023-02-11T00:16:57;99195.80;;;0.79;68.88
77855;BME280;67046;50.088;14.336;2023-02-11T00:17:29;99193.64;;;0.80;69.06
77855;BME280;67046;50.088;14.336;2023-02-11T00:18:02;99191.41;;;0.82;68.73
77855;BME280;67046;50.088;14.336;2023-02-11T00:18:34;99184.76;;;0.82;68.67
77855;BME280;67046;50.088;14.336;2023-02-11T00:19:07;99189.66;;;0.84;68.64
77855;BME280;67046;50.088;14.336;2023-02-11T00:19:39;99188.94;;;0.84;68.72
77855;BME280;67046;50.088;14.336;2023-02-11T00:20:11;99191.03;;;0.84;68.51
77855;BME280;67046;50.088;14.336;2023-02-11T00:20:43;99185.23;;;0.85;68.57
77855;BME280;67046;50.088;14.336;2023-02-11T00:21:18;99190.23;;;0.85;68.50
77855;BME280;67046;50.088;14.336;2023-02-11T00:21:50;99186.20;;;0.86;68.37
77855;BME280;67046;50.088;14.336;2023-02-11T00:22:22;99181.33;;;0.86;68.30
77855;BME280;67046;50.088;14.336;2023-02-11T00:22:54;99175.24;;;0.86;68.33
77855;BME280;67046;50.088;14.336;2023-02-11T00:23:26;99178.69;;;0.86;68.50
77855;BME280;67046;50.088;14.336;2023-02-11T00:23:58;99175.14;;;0.87;68.42
77855;BME280;67046;50.088;14.336;2023-02-11T00:24:32;99178.34;;;0.87;68.72
77855;BME280;67046;50.088;14.336;2023-02-11T00:25:05;99175.55;;;0.87;68.54
77855;BME280;67046;50.088;14.336;2023-02-11T00:25:41;99181.65;;;0.86;68.49
77855;BME280;67046;50.088;14.336;2023-02-11T00:26:22;99179.58;;;0.86;68.29
77855;BME280;67046;50.088;14.336;2023-02-11T00:26:54;99179.12;;;0.85;68.54
77855;BME280;67046;50.088;14.336;2023-02-11T00:27:26;99181.48;;;0.84;68.38
77855;BME280;67046;50.088;14.336;2023-02-11T00:27:58;99181.02;;;0.84;68.55
77855;BME280;67046;50.088;14.336;2023-02-11T00:28:30;99182.54;;;0.84;68.57
77855;BME280;67046;50.088;14.336;2023-02-11T00:29:03;99180.73;;;0.83;68.63
77855;BME280;67046;50.088;14.336;2023-02-11T00:29:37;99179.55;;;0.83;68.44
77855;BME280;67046;50.088;14.336;2023-02-11T00:30:10;99175.67;;;0.81;68.70
77855;BME280;67046;50.088;14.336;2023-02-11T00:30:42;99178.05;;;0.82;68.64
77855;BME280;67046;50.088;14.336;2023-02-11T00:31:15;99175.44;;;0.82;68.70
77855;BME280;67046;50.088;14.336;2023-02-11T00:31:47;99179.23;;;0.82;68.65
77855;BME280;67046;50.088;14.336;2023-02-11T00:32:20;99176.58;;;0.83;68.68
77855;BME280;67046;50.088;14.336;2023-02-11T00:32:52;99173.10;;;0.83;68.53
77855;BME280;67046;50.088;14.336;2023-02-11T00:33:24;99178.20;;;0.84;68.69
77855;BME280;67046;50.088;14.336;2023-02-11T00:33:55;99176.84;;;0.84;68.81
77855;BME280;67046;50.088;14.336;2023-02-11T00:34:27;99174.05;;;0.84;69.02
77855;BME280;67046;50.088;14.336;2023-02-11T00:34:59;99173.55;;;0.84;68.77
77855;BME280;67046;50.088;14.336;2023-02-11T00:35:31;99173.48;;;0.84;68.84
77855;BME280;67046;50.088;14.336;2023-02-11T00:36:08;99171.94;;;0.84;68.88
77855;BME280;67046;50.088;14.336;2023-02-11T00:36:40;99169.46;;;0.84;68.59
77855;BME280;67046;50.088;14.336;2023-02-11T00:37:12;99160.38;;;0.84;68.98
77855;BME280;67046;50.088;14.336;2023-02-11T00:37:44;99164.45;;;0.85;68.53
77855;BME280;67046;50.088;14.336;2023-02-11T00:38:16;99169.63;;;0.85;68.61
77855;BME280;67046;50.088;14.336;2023-02-11T00:38:49;99165.66;;;0.84;68.75
77855;BME280;67046;50.088;14.336;2023-02-11T00:39:21;99168.29;;;0.84;68.48
77855;BME280;67046;50.088;14.336;2023-02-11T00:39:53;99165.33;;;0.84;68.89
77855;BME280;67046;50.088;14.336;2023-02-11T00:40:25;99161.46;;;0.85;68.99
77855;BME280;67046;50.088;14.336;2023-02-11T00:40:57;99168.65;;;0.84;68.67
77855;BME280;67046;50.088;14.336;2023-02-11T00:41:30;99169.00;;;0.84;68.72
77855;BME280;67046;50.088;14.336;2023-02-11T00:42:02;99166.59;;;0.84;68.54
77855;BME280;67046;50.088;14.336;2023-02-11T00:42:34;99164.61;;;0.84;68.54
77855;BME280;67046;50.088;14.336;2023-02-11T00:43:08;99158.56;;;0.84;68.73
77855;BME280;67046;50.088;14.336;2023-02-11T00:43:40;99164.84;;;0.84;68.69
77855;BME280;67046;50.088;14.336;2023-02-11T00:44:12;99166.35;;;0.84;68.67
77855;BME280;67046;50.088;14.336;2023-02-11T00:44:44;99166.88;;;0.85;68.86
77855;BME280;67046;50.088;14.336;2023-02-11T00:45:16;99165.75;;;0.86;68.72
77855;BME280;67046;50.088;14.336;2023-02-11T00:45:48;99163.08;;;0.86;68.70
77855;BME280;67046;50.088;14.336;2023-02-11T00:46:21;99167.83;;;0.87;68.54
77855;BME280;67046;50.088;14.336;2023-02-11T00:46:53;99163.19;;;0.89;68.57
77855;BME280;67046;50.088;14.336;2023-02-11T00:47:25;99165.42;;;0.91;68.58
77855;BME280;67046;50.088;14.336;2023-02-11T00:47:57;99163.98;;;0.92;68.43
77855;BME280;67046;50.088;14.336;2023-02-11T00:48:29;99160.00;;;0.93;68.39
77855;BME280;67046;50.088;14.336;2023-02-11T00:49:01;99161.98;;;0.95;68.58
77855;BME280;67046;50.088;14.336;2023-02-11T00:49:33;99159.66;;;0.95;68.56
77855;BME280;67046;50.088;14.336;2023-02-11T00:50:05;99160.77;;;0.96;68.32
77855;BME280;67046;50.088;14.336;2023-02-11T00:50:38;99157.80;;;0.96;68.72
77855;BME280;67046;50.088;14.336;2023-02-11T00:51:11;99157.59;;;0.97;68.22
77855;BME280;67046;50.088;14.336;2023-02-11T00:51:43;99155.00;;;0.99;68.38
77855;BME280;67046;50.088;14.336;2023-02-11T00:52:15;99155.98;;;0.99;68.28
77855;BME280;67046;50.088;14.336;2023-02-11T00:52:47;99159.73;;;1.00;68.28
77855;BME280;67046;50.088;14.336;2023-02-11T00:53:19;99155.38;;;1.00;68.24
77855;BME280;67046;50.088;14.336;2023-02-11T00:53:51;99153.45;;;0.99;68.25
77855;BME280;67046;50.088;14.336;2023-02-11T00:54:23;99161.30;;;0.98;68.52
77855;BME280;67046;50.088;14.336;2023-02-11T00:54:55;99148.17;;;0.99;68.39
77855;BME280;67046;50.088;14.336;2023-02-11T00:55:27;99148.70;;;0.99;68.32
77855;BME280;67046;50.088;14.336;2023-02-11T00:55:59;99146.65;;;1.01;68.25
77855;BME280;67046;50.088;14.336;2023-02-11T00:56:32;99139.24;;;1.02;68.38
77855;BME280;67046;50.088;14.336;2023-02-11T00:57:04;99143.23;;;1.02;68.22
77855;BME280;67046;50.088;14.336;2023-02-11T00:57:36;99136.31;;;1.04;68.06
77855;BME280;67046;50.088;14.336;2023-02-11T00:58:08;99138.02;;;1.04;68.12
77855;BME280;67046;50.088;14.336;2023-02-11T00:58:40;99137.44;;;1.05;68.03
77855;BME280;67046;50.088;14.336;2023-02-11T00:59:12;99134.79;;;1.05;68.27
77855;BME280;67046;50.088;14.336;2023-02-11T00:59:44;99133.02;;;1.06;67.70
77855;BME280;67046;50.088;14.336;2023-02-11T01:00:16;99130.02;;;1.06;68.06
77855;BME280;67046;50.088;14.336;2023-02-11T01:00:48;99129.11;;;1.06;68.09
77855;BME280;67046;50.088;14.336;2023-02-11T01:01:20;99135.24;;;1.08;68.22
77855;BME280;67046;50.088;14.336;2023-02-11T01:01:52;99133.35;;;1.07;68.32
77855;BME280;67046;50.088;14.336;2023-02-11T01:02:24;99132.09;;;1.08;68.04
77855;BME280;67046;50.088;14.336;2023-02-11T01:02:56;99131.40;;;1.08;68.13
77855;BME280;67046;50.088;14.336;2023-02-11T01:03:28;99127.02;;;1.09;68.16
77855;BME280;67046;50.088;14.336;2023-02-11T01:04:00;99119.33;;;1.09;67.91
77855;BME280;67046;50.088;14.336;2023-02-11T01:04:32;99125.60;;;1.11;68.13
77855;BME280;67046;50.088;14.336;2023-02-11T01:05:04;99122.66;;;1.11;68.19
77855;BME280;67046;50.088;14.336;2023-02-11T01:05:37;99119.97;;;1.11;68.20
77855;BME280;67046;50.088;14.336;2023-02-11T01:06:09;99123.43;;;1.12;68.22
77855;BME280;67046;50.088;14.336;2023-02-11T01:06:41;99115.50;;;1.13;68.07
77855;BME280;67046;50.088;14.336;2023-02-11T01:07:13;99114.79;;;1.13;68.18
77855;BME280;67046;50.088;14.336;2023-02-11T01:07:45;99111.80;;;1.13;68.04
77855;BME280;67046;50.088;14.336;2023-02-11T01:08:18;99117.56;;;1.15;67.87
77855;BME280;67046;50.088;14.336;2023-02-11T01:08:50;99116.98;;;1.16;67.99
77855;BME280;67046;50.088;14.336;2023-02-11T01:09:22;99116.27;;;1.14;67.97
77855;BME280;67046;50.088;14.336;2023-02-11T01:09:54;99115.23;;;1.14;67.92
77855;BME280;67046;50.088;14.336;2023-02-11T01:10:26;99111.20;;;1.15;67.89
77855;BME280;67046;50.088;14.336;2023-02-11T01:11:02;99114.49;;;1.15;67.63
77855;BME280;67046;50.088;14.336;2023-02-11T01:11:34;99116.02;;;1.15;67.75
77855;BME280;67046;50.088;14.336;2023-02-11T01:12:06;99112.70;;;1.15;67.83
77855;BME280;67046;50.088;14.336;2023-02-11T01:12:38;99117.35;;;1.15;67.90
77855;BME280;67046;50.088;14.336;2023-02-11T01:13:10;99117.42;;;1.17;67.75
77855;BME280;67046;50.088;14.336;2023-02-11T01:13:43;99114.10;;;1.15;67.87
77855;BME280;67046;50.088;14.336;2023-02-11T01:14:15;99118.36;;;1.14;67.75
77855;BME280;67046;50.088;14.336;2023-02-11T01:14:47;99112.37;;;1.15;67.87
77855;BME280;67046;50.088;14.336;2023-02-11T01:15:20;99116.30;;;1.15;68.01
77855;BME280;67046;50.088;14.336;2023-02-11T01:15:53;99107.27;;;1.16;67.80
77855;BME280;67046;50.088;14.336;2023-02-11T01:16:25;99106.06;;;1.15;68.03
77855;BME280;67046;50.088;14.336;2023-02-11T01:16:57;99107.38;;;1.16;67.71
77855;BME280;67046;50.088;14.336;2023-02-11T01:17:29;99102.05;;;1.18;68.03
77855;BME280;67046;50.088;14.336;2023-02-11T01:18:03;99105.61;;;1.19;67.98
77855;BME280;67046;50.088;14.336;2023-02-11T01:18:36;99112.65;;;1.20;68.19
77855;BME280;67046;50.088;14.336;2023-02-11T01:19:08;99107.06;;;1.20;67.92
77855;BME280;67046;50.088;14.336;2023-02-11T01:19:40;99107.65;;;1.21;67.78
77855;BME280;67046;50.088;14.336;2023-02-11T01:20:18;99107.35;;;1.23;68.00
77855;BME280;67046;50.088;14.336;2023-02-11T01:20:51;99109.06;;;1.25;67.66
77855;BME280;67046;50.088;14.336;2023-02-11T01:21:24;99109.72;;;1.23;67.98
77855;BME280;67046;50.088;14.336;2023-02-11T01:21:56;99112.85;;;1.23;68.09
77855;BME280;67046;50.088;14.336;2023-02-11T01:22:28;99113.09;;;1.24;68.00
77855;BME280;67046;50.088;14.336;2023-02-11T01:23:00;99119.31;;;1.25;68.01
77855;BME280;67046;50.088;14.336;2023-02-11T01:23:32;99109.10;;;1.26;67.92
77855;BME280;67046;50.088;14.336;2023-02-11T01:24:04;99112.59;;;1.28;67.87
77855;BME280;67046;50.088;14.336;2023-02-11T01:24:36;99107.85;;;1.29;67.71
77855;BME280;67046;50.088;14.336;2023-02-11T01:25:09;99116.59;;;1.30;67.55
77855;BME280;67046;50.088;14.336;2023-02-11T01:25:41;99114.62;;;1.31;67.85
77855;BME280;67046;50.088;14.336;2023-02-11T01:26:12;99114.95;;;1.31;67.78
77855;BME280;67046;50.088;14.336;2023-02-11T01:26:44;99117.34;;;1.31;67.60
77855;BME280;67046;50.088;14.336;2023-02-11T01:27:16;99118.07;;;1.31;67.57
77855;BME280;67046;50.088;14.336;2023-02-11T01:27:49;99117.18;;;1.32;67.92
77855;BME280;67046;50.088;14.336;2023-02-11T01:28:23;99117.65;;;1.33;67.40
77855;BME280;67046;50.088;14.336;2023-02-11T01:28:56;99120.77;;;1.33;67.69
77855;BME280;67046;50.088;14.336;2023-02-11T01:29:28;99115.65;;;1.32;67.73
77855;BME280;67046;50.088;14.336;2023-02-11T01:30:00;99111.68;;;1.32;67.57
77855;BME280;67046;50.088;14.336;2023-02-11T01:30:32;99115.61;;;1.33;67.65
77855;BME280;67046;50.088;14.336;2023-02-11T01:31:04;99116.70;;;1.32;67.67
77855;BME280;67046;50.088;14.336;2023-02-11T01:31:36;99111.13;;;1.32;67.71
77855;BME280;67046;50.088;14.336;2023-02-11T01:32:08;99109.64;;;1.32;67.83
77855;BME280;67046;50.088;14.336;2023-02-11T01:32:40;99110.34;;;1.32;67.45
77855;BME280;67046;50.088;14.336;2023-02-11T01:33:13;99107.91;;;1.32;67.72
77855;BME280;67046;50.088;14.336;2023-02-11T01:33:45;99111.65;;;1.33;67.67
77855;BME280;67046;50.088;14.336;2023-02-11T01:34:17;99107.80;;;1.33;67.70
77855;BME280;67046;50.088;14.336;2023-02-11T01:34:49;99103.48;;;1.33;67.66
77855;BME280;67046;50.088;14.336;2023-02-11T01:35:21;99103.01;;;1.32;67.62
77855;BME280;67046;50.088;14.336;2023-02-11T01:35:53;99110.64;;;1.32;67.71
77855;BME280;67046;50.088;14.336;2023-02-11T01:36:25;99100.02;;;1.32;67.67
77855;BME280;67046;50.088;14.336;2023-02-11T01:36:58;99102.57;;;1.33;67.60
77855;BME280;67046;50.088;14.336;2023-02-11T01:37:32;99095.61;;;1.33;67.60
77855;BME280;67046;50.088;14.336;2023-02-11T01:38:06;99105.58;;;1.32;67.70
77855;BME280;67046;50.088;14.336;2023-02-11T01:38:39;99103.64;;;1.33;67.82
77855;BME280;67046;50.088;14.336;2023-02-11T01:39:11;99103.21;;;1.32;67.74
77855;BME280;67046;50.088;14.336;2023-02-11T01:39:43;99098.30;;;1.32;67.62
77855;BME280;67046;50.088;14.336;2023-02-11T01:40:16;99102.51;;;1.32;67.76
77855;BME280;67046;50.088;14.336;2023-02-11T01:40:53;99104.95;;;1.32;67.84
77855;BME280;67046;50.088;14.336;2023-02-11T01:41:26;99100.83;;;1.31;67.70
77855;BME280;67046;50.088;14.336;2023-02-11T01:41:58;99098.48;;;1.32;67.67
77855;BME280;67046;50.088;14.336;2023-02-11T01:42:31;99098.33;;;1.32;67.87
77855;BME280;67046;50.088;14.336;2023-02-11T01:43:03;99099.73;;;1.32;67.60
77855;BME280;67046;50.088;14.336;2023-02-11T01:43:38;99095.10;;;1.31;67.45
77855;BME280;67046;50.088;14.336;2023-02-11T01:45:02;99097.92;;;1.31;67.62
77855;BME280;67046;50.088;14.336;2023-02-11T01:45:57;99097.91;;;1.29;67.50
77855;BME280;67046;50.088;14.336;2023-02-11T01:46:36;99094.55;;;1.28;67.80
77855;BME280;67046;50.088;14.336;2023-02-11T01:47:08;99092.61;;;1.28;67.83
77855;BME280;67046;50.088;14.336;2023-02-11T01:47:40;99086.03;;;1.28;67.40
77855;BME280;67046;50.088;14.336;2023-02-11T01:48:32;99092.23;;;1.29;67.51
77855;BME280;67046;50.088;14.336;2023-02-11T01:49:18;99092.58;;;1.28;67.53
77855;BME280;67046;50.088;14.336;2023-02-11T01:49:56;99092.77;;;1.26;67.70
77855;BME280;67046;50.088;14.336;2023-02-11T01:50:28;99087.30;;;1.25;67.58
77855;BME280;67046;50.088;14.336;2023-02-11T01:51:29;99090.92;;;1.26;67.42
77855;BME280;67046;50.088;14.336;2023-02-11T01:52:09;99097.01;;;1.26;67.81
77855;BME280;67046;50.088;14.336;2023-02-11T01:52:44;99093.48;;;1.24;67.79
77855;BME280;67046;50.088;14.336;2023-02-11T01:53:19;99089.65;;;1.25;67.91
77855;BME280;67046;50.088;14.336;2023-02-11T01:54:14;99091.38;;;1.25;67.86
77855;BME280;67046;50.088;14.336;2023-02-11T01:55:16;99091.42;;;1.24;67.73
77855;BME280;67046;50.088;14.336;2023-02-11T01:56:07;99090.84;;;1.23;67.85
77855;BME280;67046;50.088;14.336;2023-02-11T01:56:59;99092.81;;;1.22;67.66
77855;BME280;67046;50.088;14.336;2023-02-11T01:57:54;99094.19;;;1.23;67.93
77855;BME280;67046;50.088;14.336;2023-02-11T01:58:29;99091.75;;;1.22;67.76
77855;BME280;67046;50.088;14.336;2023-02-11T01:59:12;99089.46;;;1.23;68.03
77855;BME280;67046;50.088;14.336;2023-02-11T02:00:26;99090.02;;;1.22;68.05
77855;BME280;67046;50.088;14.336;2023-02-11T02:01:03;99082.02;;;1.23;67.99
77855;BME280;67046;50.088;14.336;2023-02-11T02:01:39;99088.76;;;1.23;67.96
77855;BME280;67046;50.088;14.336;2023-02-11T02:02:16;99083.20;;;1.23;67.99
77855;BME280;67046;50.088;14.336;2023-02-11T02:03:33;99087.27;;;1.24;67.89
77855;BME280;67046;50.088;14.336;2023-02-11T02:04:08;99081.84;;;1.24;68.00
77855;BME280;67046;50.088;14.336;2023-02-11T02:04:59;99083.89;;;1.25;67.90
77855;BME280;67046;50.088;14.336;2023-02-11T02:06:33;99083.94;;;1.23;68.09
77855;BME280;67046;50.088;14.336;2023-02-11T02:07:11;99076.71;;;1.21;68.03
77855;BME280;67046;50.088;14.336;2023-02-11T02:07:54;99081.77;;;1.22;67.98
77855;BME280;67046;50.088;14.336;2023-02-11T02:09:16;99080.07;;;1.21;67.97
77855;BME280;67046;50.088;14.336;2023-02-11T02:09:44;99087.41;;;1.18;68.10
77855;BME280;67046;50.088;14.336;2023-02-11T02:10:22;99080.54;;;1.17;67.95
77855;BME280;67046;50.088;14.336;2023-02-11T02:10:55;99084.88;;;1.18;68.06
77855;BME280;67046;50.088;14.336;2023-02-11T02:11:31;99079.86;;;1.18;68.05
77855;BME280;67046;50.088;14.336;2023-02-11T02:12:03;99078.98;;;1.18;68.17
77855;BME280;67046;50.088;14.336;2023-02-11T02:12:35;99076.84;;;1.18;67.93
77855;BME280;67046;50.088;14.336;2023-02-11T02:13:08;99075.16;;;1.20;68.05
77855;BME280;67046;50.088;14.336;2023-02-11T02:13:41;99066.15;;;1.19;67.91
77855;BME280;67046;50.088;14.336;2023-02-11T02:14:13;99070.29;;;1.20;68.16
77855;BME280;67046;50.088;14.336;2023-02-11T02:14:45;99064.01;;;1.20;68.26
77855;BME280;67046;50.088;14.336;2023-02-11T02:15:24;99060.83;;;1.21;68.11
77855;BME280;67046;50.088;14.336;2023-02-11T02:16:05;99061.76;;;1.22;67.95
77855;BME280;67046;50.088;14.336;2023-02-11T02:16:38;99066.04;;;1.23;68.00
77855;BME280;67046;50.088;14.336;2023-02-11T02:17:27;99055.65;;;1.24;68.25
77855;BME280;67046;50.088;14.336;2023-02-11T02:21:47;99058.14;;;1.20;68.15
77855;BME280;67046;50.088;14.336;2023-02-11T02:28:47;99038.67;;;1.22;67.71
77855;BME280;67046;50.088;14.336;2023-02-11T02:30:38;99032.66;;;1.23;68.21
77855;BME280;67046;50.088;14.336;2023-02-11T02:31:25;99034.98;;;1.24;67.91
77855;BME280;67046;50.088;14.336;2023-02-11T02:32:26;99036.94;;;1.26;67.86
77855;BME280;67046;50.088;14.336;2023-02-11T02:34:06;99028.48;;;1.30;67.85
77855;BME280;67046;50.088;14.336;2023-02-11T02:34:50;99034.23;;;1.32;68.04
77855;BME280;67046;50.088;14.336;2023-02-11T02:36:50;99037.29;;;1.42;67.90
77855;BME280;67046;50.088;14.336;2023-02-11T02:37:31;99032.40;;;1.46;67.86
77855;BME280;67046;50.088;14.336;2023-02-11T02:39:10;99029.52;;;1.49;67.33
77855;BME280;67046;50.088;14.336;2023-02-11T02:39:44;99029.88;;;1.49;67.26
77855;BME280;67046;50.088;14.336;2023-02-11T02:41:03;99033.81;;;1.49;67.52
77855;BME280;67046;50.088;14.336;2023-02-11T02:41:38;99028.48;;;1.49;67.40
77855;BME280;67046;50.088;14.336;2023-02-11T02:42:12;99030.50;;;1.49;67.59
77855;BME280;67046;50.088;14.336;2023-02-11T02:42:45;99032.34;;;1.50;67.21
77855;BME280;67046;50.088;14.336;2023-02-11T02:43:19;99030.23;;;1.50;67.29
77855;BME280;67046;50.088;14.336;2023-02-11T02:43:52;99035.35;;;1.51;67.30
77855;BME280;67046;50.088;14.336;2023-02-11T02:44:25;99029.00;;;1.52;67.22
77855;BME280;67046;50.088;14.336;2023-02-11T02:44:57;99031.70;;;1.53;67.16
77855;BME280;67046;50.088;14.336;2023-02-11T02:45:29;99030.45;;;1.55;66.98
77855;BME280;67046;50.088;14.336;2023-02-11T02:46:13;99034.41;;;1.54;67.24
77855;BME280;67046;50.088;14.336;2023-02-11T02:46:46;99027.41;;;1.54;67.25
77855;BME280;67046;50.088;14.336;2023-02-11T02:47:18;99029.78;;;1.53;67.00
77855;BME280;67046;50.088;14.336;2023-02-11T02:47:50;99027.91;;;1.53;66.87
77855;BME280;67046;50.088;14.336;2023-02-11T02:48:32;99031.34;;;1.53;67.06
77855;BME280;67046;50.088;14.336;2023-02-11T02:49:12;99033.12;;;1.53;67.07
77855;BME280;67046;50.088;14.336;2023-02-11T02:49:44;99023.93;;;1.53;67.06
77855;BME280;67046;50.088;14.336;2023-02-11T02:50:18;99025.48;;;1.53;67.04
77855;BME280;67046;50.088;14.336;2023-02-11T02:51:00;99022.86;;;1.53;67.04
77855;BME280;67046;50.088;14.336;2023-02-11T02:51:41;99022.48;;;1.53;67.04
77855;BME280;67046;50.088;14.336;2023-02-11T02:52:58;99026.16;;;1.53;67.09
77855;BME280;67046;50.088;14.336;2023-02-11T02:58:57;99038.62;;;1.54;67.25
77855;BME280;67046;50.088;14.336;2023-02-11T03:04:19;99036.29;;;1.49;67.11
77855;BME280;67046;50.088;14.336;2023-02-11T03:05:11;99027.70;;;1.48;67.10
77855;BME280;67046;50.088;14.336;2023-02-11T03:06:00;99031.59;;;1.47;66.84
77855;BME280;67046;50.088;14.336;2023-02-11T03:07:02;99023.41;;;1.47;67.03
77855;BME280;67046;50.088;14.336;2023-02-11T03:08:23;99017.58;;;1.47;67.07
77855;BME280;67046;50.088;14.336;2023-02-11T03:09:25;99022.39;;;1.45;66.97
77855;BME280;67046;50.088;14.336;2023-02-11T03:10:07;99022.63;;;1.45;67.24
77855;BME280;67046;50.088;14.336;2023-02-11T03:10:44;99016.54;;;1.45;67.21
77855;BME280;67046;50.088;14.336;2023-02-11T03:11:19;99013.53;;;1.45;67.27
77855;BME280;67046;50.088;14.336;2023-02-11T03:11:53;99014.36;;;1.46;67.28
77855;BME280;67046;50.088;14.336;2023-02-11T03:12:27;99014.45;;;1.47;67.38
77855;BME280;67046;50.088;14.336;2023-02-11T03:13:02;99009.68;;;1.47;67.24
77855;BME280;67046;50.088;14.336;2023-02-11T03:13:37;99016.43;;;1.49;67.29
77855;BME280;67046;50.088;14.336;2023-02-11T03:14:12;99012.21;;;1.50;67.20
77855;BME280;67046;50.088;14.336;2023-02-11T03:14:48;99005.65;;;1.51;67.10
77855;BME280;67046;50.088;14.336;2023-02-11T03:15:23;99009.04;;;1.52;67.41
77855;BME280;67046;50.088;14.336;2023-02-11T03:16:18;99010.77;;;1.54;67.06
77855;BME280;67046;50.088;14.336;2023-02-11T03:16:54;99007.83;;;1.56;67.10
77855;BME280;67046;50.088;14.336;2023-02-11T03:17:27;99002.50;;;1.57;67.00
77855;BME280;67046;50.088;14.336;2023-02-11T03:18:02;99003.17;;;1.57;67.23
77855;BME280;67046;50.088;14.336;2023-02-11T03:18:35;99002.14;;;1.59;66.90
77855;BME280;67046;50.088;14.336;2023-02-11T03:19:14;98997.20;;;1.60;67.13
77855;BME280;67046;50.088;14.336;2023-02-11T03:19:49;98998.38;;;1.62;67.19
77855;BME280;67046;50.088;14.336;2023-02-11T03:20:22;98997.35;;;1.63;67.11
77855;BME280;67046;50.088;14.336;2023-02-11T03:20:55;99001.64;;;1.64;66.86
77855;BME280;67046;50.088;14.336;2023-02-11T03:21:30;99002.65;;;1.64;66.88
77855;BME280;67046;50.088;14.336;2023-02-11T03:22:07;99004.58;;;1.66;66.95
77855;BME280;67046;50.088;14.336;2023-02-11T03:22:45;99004.72;;;1.66;66.71
77855;BME280;67046;50.088;14.336;2023-02-11T03:23:28;99005.21;;;1.65;66.76
77855;BME280;67046;50.088;14.336;2023-02-11T03:24:05;99008.41;;;1.64;66.79
77855;BME280;67046;50.088;14.336;2023-02-11T03:24:39;99007.54;;;1.64;66.84
77855;BME280;67046;50.088;14.336;2023-02-11T03:25:12;99002.82;;;1.64;66.82
77855;BME280;67046;50.088;14.336;2023-02-11T03:25:50;99006.98;;;1.64;66.78
77855;BME280;67046;50.088;14.336;2023-02-11T03:26:29;99001.71;;;1.65;66.74
77855;BME280;67046;50.088;14.336;2023-02-11T03:27:26;98998.87;;;1.66;66.63
77855;BME280;67046;50.088;14.336;2023-02-11T03:28:13;99006.75;;;1.65;66.56
77855;BME280;67046;50.088;14.336;2023-02-11T03:28:54;99004.05;;;1.64;66.65
77855;BME280;67046;50.088;14.336;2023-02-11T03:29:55;99002.65;;;1.64;66.58
77855;BME280;67046;50.088;14.336;2023-02-11T03:30:35;98998.28;;;1.63;66.56
77855;BME280;67046;50.088;14.336;2023-02-11T03:31:16;98999.53;;;1.62;66.64
77855;BME280;67046;50.088;14.336;2023-02-11T03:31:57;98998.18;;;1.62;66.89
77855;BME280;67046;50.088;14.336;2023-02-11T03:32:37;99005.74;;;1.63;66.96
77855;BME280;67046;50.088;14.336;2023-02-11T03:33:43;98990.96;;;1.63;66.86
77855;BME280;67046;50.088;14.336;2023-02-11T03:35:22;99001.62;;;1.60;66.82
77855;BME280;67046;50.088;14.336;2023-02-11T03:36:08;99002.52;;;1.62;66.94
77855;BME280;67046;50.088;14.336;2023-02-11T03:36:51;98999.52;;;1.62;66.72
77855;BME280;67046;50.088;14.336;2023-02-11T03:38:10;99002.73;;;1.66;67.04
77855;BME280;67046;50.088;14.336;2023-02-11T03:38:47;98995.01;;;1.66;67.06
77855;BME280;67046;50.088;14.336;2023-02-11T03:39:24;98997.34;;;1.67;66.97
77855;BME280;67046;50.088;14.336;2023-02-11T03:40:05;98995.40;;;1.68;66.90